sensor_id;sensor_type;location;lat;lon;timestamp;P1;durP1;ratioP1;P2;durP2;ratioP2
3843;SDS011;1937;51.444;6.484;2022-09-09T00:00:24;1.30;;;1.10;;
3843;SDS011;1937;51.444;6.484;2022-09-09T00:02:59;2.90;;;1.37;;
3843;SDS011;1937;51.444;6.484;2022-09-09T00:05:33;1.57;;;1.20;;
3843;SDS011;1937;51.444;6.484;2022-09-09T00:08:11;2.50;;;1.10;;
3843;SDS011;1937;51.444;6.484;2022-09-09T00:10:45;4.07;;;1.43;;
3843;SDS011;1937;51.444;6.484;2022-09-09T00:13:22;3.00;;;1.80;;
3843;SDS011;1937;51.444;6.484;2022-09-09T00:15:57;6.50;;;1.40;;
3843;SDS011;1937;51.444;6.484;2022-09-09T00:18:32;2.40;;;1.50;;
3843;SDS011;1937;51.444;6.484;2022-09-09T00:21:16;1.40;;;1.13;;
3843;SDS011;1937;51.444;6.484;2022-09-09T00:23:50;1.93;;;1.40;;
3843;SDS011;1937;51.444;6.484;2022-09-09T00:26:22;2.90;;;1.83;;
3843;SDS011;1937;51.444;6.484;2022-09-09T00:29:00;1.83;;;1.50;;
3843;SDS011;1937;51.444;6.484;2022-09-09T00:31:40;4.83;;;1.20;;
3843;SDS011;1937;51.444;6.484;2022-09-09T00:34:11;4.40;;;1.73;;
3843;SDS011;1937;51.444;6.484;2022-09-09T00:36:43;1.27;;;1.17;;
3843;SDS011;1937;51.444;6.484;2022-09-09T00:39:13;2.70;;;1.20;;
3843;SDS011;1937;51.444;6.484;2022-09-09T00:41:50;1.47;;;1.27;;
3843;SDS011;1937;51.444;6.484;2022-09-09T00:44:30;3.90;;;1.40;;
3843;SDS011;1937;51.444;6.484;2022-09-09T00:47:04;5.63;;;2.17;;
3843;SDS011;1937;51.444;6.484;2022-09-09T00:49:46;1.73;;;1.43;;
3843;SDS011;1937;51.444;6.484;2022-09-09T00:52:23;1.97;;;1.50;;
3843;SDS011;1937;51.444;6.484;2022-09-09T00:55:01;1.80;;;1.37;;
3843;SDS011;1937;51.444;6.484;2022-09-09T00:57:32;4.20;;;2.80;;
3843;SDS011;1937;51.444;6.484;2022-09-09T01:00:17;3.10;;;1.87;;
3843;SDS011;1937;51.444;6.484;2022-09-09T01:02:50;3.07;;;1.93;;
3843;SDS011;1937;51.444;6.484;2022-09-09T01:05:27;3.20;;;1.60;;
3843;SDS011;1937;51.444;6.484;2022-09-09T01:08:00;4.20;;;1.80;;
3843;SDS011;1937;51.444;6.484;2022-09-09T01:10:34;3.10;;;1.80;;
3843;SDS011;1937;51.444;6.484;2022-09-09T01:13:13;1.80;;;1.50;;
3843;SDS011;1937;51.444;6.484;2022-09-09T01:15:49;4.20;;;1.80;;
3843;SDS011;1937;51.444;6.484;2022-09-09T01:18:20;2.70;;;1.90;;
3843;SDS011;1937;51.444;6.484;2022-09-09T01:20:54;3.50;;;2.20;;
3843;SDS011;1937;51.444;6.484;2022-09-09T01:23:41;2.23;;;1.63;;
3843;SDS011;1937;51.444;6.484;2022-09-09T01:26:28;3.47;;;1.63;;
3843;SDS011;1937;51.444;6.484;2022-09-09T01:29:00;1.90;;;1.80;;
3843;SDS011;1937;51.444;6.484;2022-09-09T01:31:35;2.63;;;2.10;;
3843;SDS011;1937;51.444;6.484;2022-09-09T01:34:10;2.43;;;2.23;;
3843;SDS011;1937;51.444;6.484;2022-09-09T01:36:42;4.07;;;2.00;;
3843;SDS011;1937;51.444;6.484;2022-09-09T01:39:15;3.50;;;2.60;;
3843;SDS011;1937;51.444;6.484;2022-09-09T01:41:45;2.63;;;2.40;;
3843;SDS011;1937;51.444;6.484;2022-09-09T01:44:14;2.97;;;2.40;;
3843;SDS011;1937;51.444;6.484;2022-09-09T01:46:43;4.20;;;2.30;;
3843;SDS011;1937;51.444;6.484;2022-09-09T01:49:12;5.07;;;3.37;;
3843;SDS011;1937;51.444;6.484;2022-09-09T01:51:42;5.97;;;3.23;;
3843;SDS011;1937;51.444;6.484;2022-09-09T01:54:14;3.97;;;3.50;;
3843;SDS011;1937;51.444;6.484;2022-09-09T01:56:47;3.83;;;3.30;;
3843;SDS011;1937;51.444;6.484;2022-09-09T01:59:33;6.20;;;3.37;;
3843;SDS011;1937;51.444;6.484;2022-09-09T02:02:13;4.63;;;3.37;;
3843;SDS011;1937;51.444;6.484;2022-09-09T02:04:44;5.20;;;3.60;;
3843;SDS011;1937;51.444;6.484;2022-09-09T02:10:05;3.43;;;3.10;;
3843;SDS011;1937;51.444;6.484;2022-09-09T02:12:37;7.37;;;3.60;;
3843;SDS011;1937;51.444;6.484;2022-09-09T02:15:11;5.23;;;3.60;;
3843;SDS011;1937;51.444;6.484;2022-09-09T02:17:45;3.40;;;3.10;;
3843;SDS011;1937;51.444;6.484;2022-09-09T02:20:16;3.60;;;3.10;;
3843;SDS011;1937;51.444;6.484;2022-09-09T02:22:47;3.83;;;3.23;;
3843;SDS011;1937;51.444;6.484;2022-09-09T02:25:18;4.30;;;3.00;;
3843;SDS011;1937;51.444;6.484;2022-09-09T02:27:50;11.77;;;4.00;;
3843;SDS011;1937;51.444;6.484;2022-09-09T02:30:18;3.83;;;2.73;;
3843;SDS011;1937;51.444;6.484;2022-09-09T02:32:48;4.10;;;2.93;;
3843;SDS011;1937;51.444;6.484;2022-09-09T02:35:22;4.70;;;2.60;;
3843;SDS011;1937;51.444;6.484;2022-09-09T02:37:53;6.77;;;2.70;;
3843;SDS011;1937;51.444;6.484;2022-09-09T02:40:26;3.10;;;2.50;;
3843;SDS011;1937;51.444;6.484;2022-09-09T02:42:56;4.80;;;2.47;;
3843;SDS011;1937;51.444;6.484;2022-09-09T02:45:27;3.10;;;2.50;;
3843;SDS011;1937;51.444;6.484;2022-09-09T02:48:02;6.13;;;2.70;;
3843;SDS011;1937;51.444;6.484;2022-09-09T02:50:37;4.00;;;2.10;;
3843;SDS011;1937;51.444;6.484;2022-09-09T02:53:14;2.90;;;1.93;;
3843;SDS011;1937;51.444;6.484;2022-09-09T02:55:47;8.00;;;2.63;;
3843;SDS011;1937;51.444;6.484;2022-09-09T02:58:21;3.77;;;2.10;;
3843;SDS011;1937;51.444;6.484;2022-09-09T03:00:49;6.40;;;2.13;;
3843;SDS011;1937;51.444;6.484;2022-09-09T03:03:19;4.70;;;1.90;;
3843;SDS011;1937;51.444;6.484;2022-09-09T03:05:48;5.80;;;2.30;;
3843;SDS011;1937;51.444;6.484;2022-09-09T03:08:17;7.23;;;2.30;;
3843;SDS011;1937;51.444;6.484;2022-09-09T03:10:45;4.63;;;1.80;;
3843;SDS011;1937;51.444;6.484;2022-09-09T03:13:14;4.47;;;1.93;;
3843;SDS011;1937;51.444;6.484;2022-09-09T03:15:45;2.73;;;2.13;;
3843;SDS011;1937;51.444;6.484;2022-09-09T03:18:14;3.63;;;2.00;;
3843;SDS011;1937;51.444;6.484;2022-09-09T03:20:43;4.73;;;1.70;;
3843;SDS011;1937;51.444;6.484;2022-09-09T03:23:13;2.63;;;2.43;;
3843;SDS011;1937;51.444;6.484;2022-09-09T03:25:46;6.57;;;2.40;;
3843;SDS011;1937;51.444;6.484;2022-09-09T03:28:15;4.63;;;1.83;;
3843;SDS011;1937;51.444;6.484;2022-09-09T03:30:44;4.20;;;2.27;;
3843;SDS011;1937;51.444;6.484;2022-09-09T03:33:12;3.67;;;2.00;;
3843;SDS011;1937;51.444;6.484;2022-09-09T03:35:44;3.40;;;2.00;;
3843;SDS011;1937;51.444;6.484;2022-09-09T03:38:13;4.90;;;2.53;;
3843;SDS011;1937;51.444;6.484;2022-09-09T03:40:48;9.07;;;2.37;;
3843;SDS011;1937;51.444;6.484;2022-09-09T03:43:20;5.03;;;2.00;;
3843;SDS011;1937;51.444;6.484;2022-09-09T03:45:49;2.87;;;2.10;;
3843;SDS011;1937;51.444;6.484;2022-09-09T03:48:22;6.40;;;1.97;;
3843;SDS011;1937;51.444;6.484;2022-09-09T03:50:52;10.00;;;2.70;;
3843;SDS011;1937;51.444;6.484;2022-09-09T03:53:23;7.03;;;2.17;;
3843;SDS011;1937;51.444;6.484;2022-09-09T03:55:53;4.17;;;2.53;;
3843;SDS011;1937;51.444;6.484;2022-09-09T03:58:25;5.57;;;3.07;;
3843;SDS011;1937;51.444;6.484;2022-09-09T04:00:56;3.47;;;2.60;;
3843;SDS011;1937;51.444;6.484;2022-09-09T04:03:27;6.93;;;2.57;;
3843;SDS011;1937;51.444;6.484;2022-09-09T04:05:57;9.43;;;3.07;;
3843;SDS011;1937;51.444;6.484;2022-09-09T04:08:28;2.70;;;2.50;;
3843;SDS011;1937;51.444;6.484;2022-09-09T04:10:57;7.27;;;2.47;;
3843;SDS011;1937;51.444;6.484;2022-09-09T04:13:30;5.13;;;2.50;;
3843;SDS011;1937;51.444;6.484;2022-09-09T04:16:01;6.10;;;2.27;;
3843;SDS011;1937;51.444;6.484;2022-09-09T04:18:31;3.90;;;2.30;;
3843;SDS011;1937;51.444;6.484;2022-09-09T04:21:01;5.20;;;2.70;;
3843;SDS011;1937;51.444;6.484;2022-09-09T04:23:31;5.70;;;3.23;;
3843;SDS011;1937;51.444;6.484;2022-09-09T04:26:01;2.90;;;2.00;;
3843;SDS011;1937;51.444;6.484;2022-09-09T04:28:31;2.70;;;1.97;;
3843;SDS011;1937;51.444;6.484;2022-09-09T04:31:06;2.43;;;1.90;;
3843;SDS011;1937;51.444;6.484;2022-09-09T04:33:37;9.10;;;2.90;;
3843;SDS011;1937;51.444;6.484;2022-09-09T04:36:06;4.57;;;3.07;;
3843;SDS011;1937;51.444;6.484;2022-09-09T04:38:35;3.17;;;2.30;;
3843;SDS011;1937;51.444;6.484;2022-09-09T04:41:05;4.20;;;2.33;;
3843;SDS011;1937;51.444;6.484;2022-09-09T04:43:36;6.27;;;2.53;;
3843;SDS011;1937;51.444;6.484;2022-09-09T04:46:06;6.37;;;2.47;;
3843;SDS011;1937;51.444;6.484;2022-09-09T04:48:35;3.10;;;2.20;;
3843;SDS011;1937;51.444;6.484;2022-09-09T04:51:05;4.53;;;2.60;;
3843;SDS011;1937;51.444;6.484;2022-09-09T04:53:37;4.17;;;2.53;;
3843;SDS011;1937;51.444;6.484;2022-09-09T04:56:06;7.07;;;3.00;;
3843;SDS011;1937;51.444;6.484;2022-09-09T04:58:36;5.40;;;2.53;;
3843;SDS011;1937;51.444;6.484;2022-09-09T05:01:08;6.57;;;2.60;;
3843;SDS011;1937;51.444;6.484;2022-09-09T05:03:38;9.33;;;2.60;;
3843;SDS011;1937;51.444;6.484;2022-09-09T05:06:07;3.47;;;2.33;;
3843;SDS011;1937;51.444;6.484;2022-09-09T05:08:38;3.10;;;2.70;;
3843;SDS011;1937;51.444;6.484;2022-09-09T05:11:13;6.03;;;2.97;;
3843;SDS011;1937;51.444;6.484;2022-09-09T05:13:43;2.73;;;2.30;;
3843;SDS011;1937;51.444;6.484;2022-09-09T05:16:16;4.40;;;2.67;;
3843;SDS011;1937;51.444;6.484;2022-09-09T05:18:47;4.00;;;2.77;;
3843;SDS011;1937;51.444;6.484;2022-09-09T05:21:17;5.23;;;3.10;;
3843;SDS011;1937;51.444;6.484;2022-09-09T05:23:48;4.60;;;2.10;;
3843;SDS011;1937;51.444;6.484;2022-09-09T05:26:17;8.03;;;3.00;;
3843;SDS011;1937;51.444;6.484;2022-09-09T05:28:47;5.70;;;4.00;;
3843;SDS011;1937;51.444;6.484;2022-09-09T05:31:17;5.67;;;2.60;;
3843;SDS011;1937;51.444;6.484;2022-09-09T05:33:47;5.40;;;2.83;;
3843;SDS011;1937;51.444;6.484;2022-09-09T05:36:17;10.63;;;3.20;;
3843;SDS011;1937;51.444;6.484;2022-09-09T05:38:48;7.50;;;2.67;;
3843;SDS011;1937;51.444;6.484;2022-09-09T05:41:18;6.23;;;2.63;;
3843;SDS011;1937;51.444;6.484;2022-09-09T05:43:48;8.10;;;3.00;;
3843;SDS011;1937;51.444;6.484;2022-09-09T05:46:18;5.10;;;2.63;;
3843;SDS011;1937;51.444;6.484;2022-09-09T05:48:49;4.73;;;2.53;;
3843;SDS011;1937;51.444;6.484;2022-09-09T05:51:19;5.43;;;3.10;;
3843;SDS011;1937;51.444;6.484;2022-09-09T05:53:49;6.20;;;2.67;;
3843;SDS011;1937;51.444;6.484;2022-09-09T05:56:18;3.57;;;2.87;;
3843;SDS011;1937;51.444;6.484;2022-09-09T05:58:49;8.10;;;3.17;;
3843;SDS011;1937;51.444;6.484;2022-09-09T06:01:20;8.53;;;3.03;;
3843;SDS011;1937;51.444;6.484;2022-09-09T06:03:51;6.50;;;3.40;;
3843;SDS011;1937;51.444;6.484;2022-09-09T06:06:20;4.77;;;2.87;;
3843;SDS011;1937;51.444;6.484;2022-09-09T06:08:51;6.03;;;2.77;;
3843;SDS011;1937;51.444;6.484;2022-09-09T06:11:22;3.33;;;2.90;;
3843;SDS011;1937;51.444;6.484;2022-09-09T06:13:54;9.57;;;2.73;;
3843;SDS011;1937;51.444;6.484;2022-09-09T06:18:52;6.53;;;3.20;;
3843;SDS011;1937;51.444;6.484;2022-09-09T06:21:22;9.90;;;3.20;;
3843;SDS011;1937;51.444;6.484;2022-09-09T06:23:52;4.40;;;2.87;;
3843;SDS011;1937;51.444;6.484;2022-09-09T06:26:21;8.57;;;3.10;;
3843;SDS011;1937;51.444;6.484;2022-09-09T06:28:51;3.10;;;2.40;;
3843;SDS011;1937;51.444;6.484;2022-09-09T06:31:22;5.53;;;2.77;;
3843;SDS011;1937;51.444;6.484;2022-09-09T06:33:56;4.37;;;2.70;;
3843;SDS011;1937;51.444;6.484;2022-09-09T06:36:26;6.83;;;2.83;;
3843;SDS011;1937;51.444;6.484;2022-09-09T06:38:57;7.47;;;2.97;;
3843;SDS011;1937;51.444;6.484;2022-09-09T06:41:26;10.83;;;3.77;;
3843;SDS011;1937;51.444;6.484;2022-09-09T06:43:55;12.77;;;2.63;;
3843;SDS011;1937;51.444;6.484;2022-09-09T06:46:25;6.53;;;2.60;;
3843;SDS011;1937;51.444;6.484;2022-09-09T06:48:57;6.67;;;2.80;;
3843;SDS011;1937;51.444;6.484;2022-09-09T06:51:28;5.37;;;2.30;;
3843;SDS011;1937;51.444;6.484;2022-09-09T06:53:58;6.67;;;2.90;;
3843;SDS011;1937;51.444;6.484;2022-09-09T06:56:28;4.80;;;2.50;;
3843;SDS011;1937;51.444;6.484;2022-09-09T06:58:59;8.30;;;3.10;;
3843;SDS011;1937;51.444;6.484;2022-09-09T07:01:30;8.67;;;2.50;;
3843;SDS011;1937;51.444;6.484;2022-09-09T07:04:02;12.50;;;3.10;;
3843;SDS011;1937;51.444;6.484;2022-09-09T07:06:33;7.23;;;2.33;;
3843;SDS011;1937;51.444;6.484;2022-09-09T07:09:04;6.33;;;2.30;;
3843;SDS011;1937;51.444;6.484;2022-09-09T07:11:37;6.50;;;2.90;;
3843;SDS011;1937;51.444;6.484;2022-09-09T07:14:06;3.60;;;2.17;;
3843;SDS011;1937;51.444;6.484;2022-09-09T07:16:37;5.57;;;2.83;;
3843;SDS011;1937;51.444;6.484;2022-09-09T07:19:08;4.73;;;1.90;;
3843;SDS011;1937;51.444;6.484;2022-09-09T07:21:39;7.77;;;2.23;;
3843;SDS011;1937;51.444;6.484;2022-09-09T07:24:08;6.27;;;2.23;;
3843;SDS011;1937;51.444;6.484;2022-09-09T07:26:37;5.80;;;2.33;;
3843;SDS011;1937;51.444;6.484;2022-09-09T07:29:07;5.90;;;2.40;;
3843;SDS011;1937;51.444;6.484;2022-09-09T07:31:38;7.37;;;2.20;;
3843;SDS011;1937;51.444;6.484;2022-09-09T07:34:08;8.67;;;2.80;;
3843;SDS011;1937;51.444;6.484;2022-09-09T07:36:37;6.43;;;2.17;;
3843;SDS011;1937;51.444;6.484;2022-09-09T07:39:08;6.13;;;1.90;;
3843;SDS011;1937;51.444;6.484;2022-09-09T07:41:39;9.17;;;2.60;;
3843;SDS011;1937;51.444;6.484;2022-09-09T07:44:09;11.73;;;2.40;;
3843;SDS011;1937;51.444;6.484;2022-09-09T07:46:39;7.03;;;1.93;;
3843;SDS011;1937;51.444;6.484;2022-09-09T07:49:10;7.80;;;1.90;;
3843;SDS011;1937;51.444;6.484;2022-09-09T07:51:40;8.67;;;3.77;;
3843;SDS011;1937;51.444;6.484;2022-09-09T07:54:12;3.10;;;1.93;;
3843;SDS011;1937;51.444;6.484;2022-09-09T07:56:45;5.10;;;2.77;;
3843;SDS011;1937;51.444;6.484;2022-09-09T07:59:14;10.63;;;2.27;;
3843;SDS011;1937;51.444;6.484;2022-09-09T08:01:44;5.93;;;2.17;;
3843;SDS011;1937;51.444;6.484;2022-09-09T08:04:17;5.47;;;2.33;;
3843;SDS011;1937;51.444;6.484;2022-09-09T08:06:47;5.93;;;1.80;;
3843;SDS011;1937;51.444;6.484;2022-09-09T08:09:18;3.90;;;1.73;;
3843;SDS011;1937;51.444;6.484;2022-09-09T08:11:50;2.87;;;1.73;;
3843;SDS011;1937;51.444;6.484;2022-09-09T08:14:18;5.77;;;1.90;;
3843;SDS011;1937;51.444;6.484;2022-09-09T08:16:49;3.73;;;1.90;;
3843;SDS011;1937;51.444;6.484;2022-09-09T08:19:20;9.00;;;2.00;;
3843;SDS011;1937;51.444;6.484;2022-09-09T08:21:48;9.50;;;1.77;;
3843;SDS011;1937;51.444;6.484;2022-09-09T08:24:19;4.50;;;1.60;;
3843;SDS011;1937;51.444;6.484;2022-09-09T08:26:48;3.00;;;1.30;;
3843;SDS011;1937;51.444;6.484;2022-09-09T08:29:16;3.70;;;1.70;;
3843;SDS011;1937;51.444;6.484;2022-09-09T08:31:45;4.80;;;1.93;;
3843;SDS011;1937;51.444;6.484;2022-09-09T08:34:15;4.70;;;1.77;;
3843;SDS011;1937;51.444;6.484;2022-09-09T08:36:46;5.70;;;2.10;;
3843;SDS011;1937;51.444;6.484;2022-09-09T08:39:16;8.10;;;2.40;;
3843;SDS011;1937;51.444;6.484;2022-09-09T08:41:52;3.63;;;1.80;;
3843;SDS011;1937;51.444;6.484;2022-09-09T08:44:34;7.70;;;1.80;;
3843;SDS011;1937;51.444;6.484;2022-09-09T08:47:11;6.30;;;1.97;;
3843;SDS011;1937;51.444;6.484;2022-09-09T08:49:50;4.63;;;2.07;;
3843;SDS011;1937;51.444;6.484;2022-09-09T08:52:36;6.30;;;2.33;;
3843;SDS011;1937;51.444;6.484;2022-09-09T08:55:15;5.63;;;2.50;;
3843;SDS011;1937;51.444;6.484;2022-09-09T08:57:49;4.53;;;1.83;;
3843;SDS011;1937;51.444;6.484;2022-09-09T09:00:20;4.70;;;1.93;;
3843;SDS011;1937;51.444;6.484;2022-09-09T09:02:53;4.43;;;2.07;;
3843;SDS011;1937;51.444;6.484;2022-09-09T09:05:32;6.30;;;2.40;;
3843;SDS011;1937;51.444;6.484;2022-09-09T09:08:08;4.00;;;2.53;;
3843;SDS011;1937;51.444;6.484;2022-09-09T09:10:45;6.83;;;1.97;;
3843;SDS011;1937;51.444;6.484;2022-09-09T09:13:17;11.73;;;2.50;;
3843;SDS011;1937;51.444;6.484;2022-09-09T09:15:50;7.63;;;1.70;;
3843;SDS011;1937;51.444;6.484;2022-09-09T09:18:24;7.27;;;1.80;;
3843;SDS011;1937;51.444;6.484;2022-09-09T09:20:55;6.30;;;2.00;;
3843;SDS011;1937;51.444;6.484;2022-09-09T09:23:29;4.40;;;1.87;;
3843;SDS011;1937;51.444;6.484;2022-09-09T09:26:06;7.17;;;2.57;;
3843;SDS011;1937;51.444;6.484;2022-09-09T09:28:35;7.37;;;2.63;;
3843;SDS011;1937;51.444;6.484;2022-09-09T09:31:06;12.77;;;2.47;;
3843;SDS011;1937;51.444;6.484;2022-09-09T09:33:38;12.13;;;3.70;;
3843;SDS011;1937;51.444;6.484;2022-09-09T09:36:12;8.60;;;2.50;;
3843;SDS011;1937;51.444;6.484;2022-09-09T09:38:53;8.50;;;2.63;;
3843;SDS011;1937;51.444;6.484;2022-09-09T09:41:31;7.40;;;2.30;;
3843;SDS011;1937;51.444;6.484;2022-09-09T09:44:03;3.43;;;1.50;;
3843;SDS011;1937;51.444;6.484;2022-09-09T09:46:46;12.90;;;3.90;;
3843;SDS011;1937;51.444;6.484;2022-09-09T09:49:14;7.17;;;1.80;;
3843;SDS011;1937;51.444;6.484;2022-09-09T09:51:44;6.20;;;2.20;;
3843;SDS011;1937;51.444;6.484;2022-09-09T09:54:22;5.50;;;2.20;;
3843;SDS011;1937;51.444;6.484;2022-09-09T09:56:55;11.33;;;3.50;;
3843;SDS011;1937;51.444;6.484;2022-09-09T09:59:34;7.60;;;1.77;;
3843;SDS011;1937;51.444;6.484;2022-09-09T10:05:00;21.63;;;3.77;;
3843;SDS011;1937;51.444;6.484;2022-09-09T10:07:29;5.77;;;1.73;;
3843;SDS011;1937;51.444;6.484;2022-09-09T10:10:00;3.10;;;1.77;;
3843;SDS011;1937;51.444;6.484;2022-09-09T10:12:32;7.00;;;1.97;;
3843;SDS011;1937;51.444;6.484;2022-09-09T10:15:15;2.90;;;1.70;;
3843;SDS011;1937;51.444;6.484;2022-09-09T10:17:54;5.90;;;1.70;;
3843;SDS011;1937;51.444;6.484;2022-09-09T10:20:33;3.23;;;1.37;;
3843;SDS011;1937;51.444;6.484;2022-09-09T10:23:13;5.87;;;1.67;;
3843;SDS011;1937;51.444;6.484;2022-09-09T10:26:02;4.40;;;1.77;;
3843;SDS011;1937;51.444;6.484;2022-09-09T10:31:44;33.30;;;4.83;;
3843;SDS011;1937;51.444;6.484;2022-09-09T10:34:33;13.20;;;2.87;;
3843;SDS011;1937;51.444;6.484;2022-09-09T10:37:22;11.17;;;3.77;;
3843;SDS011;1937;51.444;6.484;2022-09-09T10:40:02;3.40;;;1.63;;
3843;SDS011;1937;51.444;6.484;2022-09-09T10:42:41;5.50;;;1.40;;
3843;SDS011;1937;51.444;6.484;2022-09-09T10:45:15;3.73;;;2.20;;
3843;SDS011;1937;51.444;6.484;2022-09-09T10:47:56;5.53;;;1.90;;
3843;SDS011;1937;51.444;6.484;2022-09-09T10:53:30;9.30;;;3.57;;
3843;SDS011;1937;51.444;6.484;2022-09-09T10:56:11;3.80;;;1.67;;
3843;SDS011;1937;51.444;6.484;2022-09-09T10:58:46;7.27;;;2.13;;
3843;SDS011;1937;51.444;6.484;2022-09-09T11:01:20;6.83;;;1.70;;
3843;SDS011;1937;51.444;6.484;2022-09-09T11:03:55;7.83;;;2.10;;
3843;SDS011;1937;51.444;6.484;2022-09-09T11:06:29;4.80;;;2.20;;
3843;SDS011;1937;51.444;6.484;2022-09-09T11:09:03;6.27;;;1.77;;
3843;SDS011;1937;51.444;6.484;2022-09-09T11:11:42;5.00;;;2.17;;
3843;SDS011;1937;51.444;6.484;2022-09-09T11:14:19;2.60;;;1.40;;
3843;SDS011;1937;51.444;6.484;2022-09-09T11:16:56;2.30;;;1.20;;
3843;SDS011;1937;51.444;6.484;2022-09-09T11:19:28;7.47;;;1.60;;
3843;SDS011;1937;51.444;6.484;2022-09-09T11:22:00;3.17;;;2.07;;
3843;SDS011;1937;51.444;6.484;2022-09-09T11:24:35;4.30;;;2.50;;
3843;SDS011;1937;51.444;6.484;2022-09-09T11:27:11;5.10;;;2.10;;
3843;SDS011;1937;51.444;6.484;2022-09-09T11:30:12;2.80;;;1.50;;
3843;SDS011;1937;51.444;6.484;2022-09-09T11:32:59;3.10;;;2.90;;
3843;SDS011;1937;51.444;6.484;2022-09-09T11:35:49;2.90;;;1.50;;
3843;SDS011;1937;51.444;6.484;2022-09-09T11:38:28;4.70;;;1.50;;
3843;SDS011;1937;51.444;6.484;2022-09-09T11:41:03;2.97;;;1.53;;
3843;SDS011;1937;51.444;6.484;2022-09-09T11:43:38;3.77;;;1.50;;
3843;SDS011;1937;51.444;6.484;2022-09-09T11:46:10;4.23;;;1.50;;
3843;SDS011;1937;51.444;6.484;2022-09-09T11:48:43;2.30;;;1.43;;
3843;SDS011;1937;51.444;6.484;2022-09-09T11:51:26;1.53;;;1.43;;
3843;SDS011;1937;51.444;6.484;2022-09-09T11:53:57;2.70;;;1.40;;
3843;SDS011;1937;51.444;6.484;2022-09-09T11:56:28;1.60;;;1.17;;
3843;SDS011;1937;51.444;6.484;2022-09-09T11:59:00;6.90;;;1.33;;
3843;SDS011;1937;51.444;6.484;2022-09-09T12:01:40;3.17;;;1.30;;
3843;SDS011;1937;51.444;6.484;2022-09-09T12:04:21;3.87;;;1.10;;
3843;SDS011;1937;51.444;6.484;2022-09-09T12:06:56;7.13;;;1.60;;
3843;SDS011;1937;51.444;6.484;2022-09-09T12:09:29;4.87;;;1.30;;
3843;SDS011;1937;51.444;6.484;2022-09-09T12:12:21;6.73;;;1.73;;
3843;SDS011;1937;51.444;6.484;2022-09-09T12:14:55;3.90;;;1.37;;
3843;SDS011;1937;51.444;6.484;2022-09-09T12:17:26;2.10;;;1.50;;
3843;SDS011;1937;51.444;6.484;2022-09-09T12:20:00;1.10;;;1.00;;
3843;SDS011;1937;51.444;6.484;2022-09-09T12:22:36;2.30;;;1.10;;
3843;SDS011;1937;51.444;6.484;2022-09-09T12:25:13;4.40;;;1.30;;
3843;SDS011;1937;51.444;6.484;2022-09-09T12:27:54;2.60;;;1.40;;
3843;SDS011;1937;51.444;6.484;2022-09-09T12:30:29;2.20;;;1.40;;
3843;SDS011;1937;51.444;6.484;2022-09-09T12:33:10;3.63;;;1.40;;
3843;SDS011;1937;51.444;6.484;2022-09-09T12:35:45;6.43;;;1.60;;
3843;SDS011;1937;51.444;6.484;2022-09-09T12:38:20;2.87;;;1.50;;
3843;SDS011;1937;51.444;6.484;2022-09-09T12:40:54;1.83;;;1.40;;
3843;SDS011;1937;51.444;6.484;2022-09-09T12:43:24;1.47;;;1.37;;
3843;SDS011;1937;51.444;6.484;2022-09-09T12:45:54;3.57;;;2.20;;
3843;SDS011;1937;51.444;6.484;2022-09-09T12:48:32;3.97;;;1.67;;
3843;SDS011;1937;51.444;6.484;2022-09-09T12:51:03;4.43;;;2.27;;
3843;SDS011;1937;51.444;6.484;2022-09-09T12:53:42;6.57;;;1.60;;
3843;SDS011;1937;51.444;6.484;2022-09-09T12:56:18;5.73;;;1.73;;
3843;SDS011;1937;51.444;6.484;2022-09-09T12:58:49;4.70;;;1.60;;
3843;SDS011;1937;51.444;6.484;2022-09-09T13:01:20;4.47;;;1.70;;
3843;SDS011;1937;51.444;6.484;2022-09-09T13:03:52;3.20;;;1.90;;
3843;SDS011;1937;51.444;6.484;2022-09-09T13:06:22;4.67;;;1.70;;
3843;SDS011;1937;51.444;6.484;2022-09-09T13:08:51;4.03;;;1.83;;
3843;SDS011;1937;51.444;6.484;2022-09-09T13:11:23;3.70;;;1.70;;
3843;SDS011;1937;51.444;6.484;2022-09-09T13:13:58;4.50;;;1.70;;
3843;SDS011;1937;51.444;6.484;2022-09-09T13:16:28;4.47;;;1.67;;
3843;SDS011;1937;51.444;6.484;2022-09-09T13:19:01;2.00;;;1.40;;
3843;SDS011;1937;51.444;6.484;2022-09-09T13:21:34;1.63;;;1.30;;
3843;SDS011;1937;51.444;6.484;2022-09-09T13:24:04;3.90;;;1.73;;
3843;SDS011;1937;51.444;6.484;2022-09-09T13:26:53;4.20;;;1.60;;
3843;SDS011;1937;51.444;6.484;2022-09-09T13:29:23;3.87;;;1.60;;
3843;SDS011;1937;51.444;6.484;2022-09-09T13:31:52;3.40;;;1.60;;
3843;SDS011;1937;51.444;6.484;2022-09-09T13:34:32;10.60;;;2.47;;
3843;SDS011;1937;51.444;6.484;2022-09-09T13:37:02;3.43;;;1.60;;
3843;SDS011;1937;51.444;6.484;2022-09-09T13:39:50;3.17;;;1.33;;
3843;SDS011;1937;51.444;6.484;2022-09-09T13:42:22;2.60;;;1.43;;
3843;SDS011;1937;51.444;6.484;2022-09-09T13:44:54;1.93;;;1.70;;
3843;SDS011;1937;51.444;6.484;2022-09-09T13:47:27;3.70;;;1.27;;
3843;SDS011;1937;51.444;6.484;2022-09-09T13:50:09;6.37;;;1.30;;
3843;SDS011;1937;51.444;6.484;2022-09-09T13:52:43;1.60;;;1.20;;
3843;SDS011;1937;51.444;6.484;2022-09-09T13:55:12;1.50;;;1.30;;
3843;SDS011;1937;51.444;6.484;2022-09-09T13:57:49;4.70;;;1.50;;
3843;SDS011;1937;51.444;6.484;2022-09-09T14:00:19;1.30;;;1.20;;
3843;SDS011;1937;51.444;6.484;2022-09-09T14:02:49;1.70;;;1.20;;
3843;SDS011;1937;51.444;6.484;2022-09-09T14:05:21;2.90;;;1.30;;
3843;SDS011;1937;51.444;6.484;2022-09-09T14:07:50;2.43;;;1.60;;
3843;SDS011;1937;51.444;6.484;2022-09-09T14:10:18;2.30;;;1.57;;
3843;SDS011;1937;51.444;6.484;2022-09-09T14:12:47;2.40;;;1.63;;
3843;SDS011;1937;51.444;6.484;2022-09-09T14:15:16;3.07;;;1.60;;
3843;SDS011;1937;51.444;6.484;2022-09-09T14:17:45;12.37;;;2.20;;
3843;SDS011;1937;51.444;6.484;2022-09-09T14:20:13;2.63;;;2.20;;
3843;SDS011;1937;51.444;6.484;2022-09-09T14:22:44;2.47;;;1.67;;
3843;SDS011;1937;51.444;6.484;2022-09-09T14:25:12;4.53;;;1.97;;
3843;SDS011;1937;51.444;6.484;2022-09-09T14:27:40;3.73;;;1.80;;
3843;SDS011;1937;51.444;6.484;2022-09-09T14:30:13;2.43;;;1.33;;
3843;SDS011;1937;51.444;6.484;2022-09-09T14:32:42;1.87;;;1.67;;
3843;SDS011;1937;51.444;6.484;2022-09-09T14:35:10;6.03;;;2.10;;
3843;SDS011;1937;51.444;6.484;2022-09-09T14:37:39;4.13;;;1.80;;
3843;SDS011;1937;51.444;6.484;2022-09-09T14:40:08;2.70;;;1.60;;
3843;SDS011;1937;51.444;6.484;2022-09-09T14:42:37;5.07;;;1.80;;
3843;SDS011;1937;51.444;6.484;2022-09-09T14:45:06;7.50;;;1.97;;
3843;SDS011;1937;51.444;6.484;2022-09-09T14:47:36;1.90;;;1.70;;
3843;SDS011;1937;51.444;6.484;2022-09-09T14:50:05;4.80;;;1.73;;
3843;SDS011;1937;51.444;6.484;2022-09-09T14:52:34;3.60;;;1.73;;
3843;SDS011;1937;51.444;6.484;2022-09-09T14:55:03;4.70;;;1.87;;
3843;SDS011;1937;51.444;6.484;2022-09-09T14:57:34;2.93;;;1.90;;
3843;SDS011;1937;51.444;6.484;2022-09-09T15:00:03;3.43;;;2.23;;
3843;SDS011;1937;51.444;6.484;2022-09-09T15:02:33;6.70;;;2.20;;
3843;SDS011;1937;51.444;6.484;2022-09-09T15:05:01;3.60;;;1.73;;
3843;SDS011;1937;51.444;6.484;2022-09-09T15:07:30;4.10;;;1.77;;
3843;SDS011;1937;51.444;6.484;2022-09-09T15:09:59;3.60;;;1.93;;
3843;SDS011;1937;51.444;6.484;2022-09-09T15:12:27;4.70;;;2.27;;
3843;SDS011;1937;51.444;6.484;2022-09-09T15:14:57;3.67;;;2.43;;
3843;SDS011;1937;51.444;6.484;2022-09-09T15:17:25;2.83;;;1.67;;
3843;SDS011;1937;51.444;6.484;2022-09-09T15:19:53;2.13;;;1.60;;
3843;SDS011;1937;51.444;6.484;2022-09-09T15:22:22;1.90;;;1.40;;
3843;SDS011;1937;51.444;6.484;2022-09-09T15:24:50;3.47;;;1.47;;
3843;SDS011;1937;51.444;6.484;2022-09-09T15:27:19;4.97;;;2.03;;
3843;SDS011;1937;51.444;6.484;2022-09-09T15:29:48;2.43;;;1.70;;
3843;SDS011;1937;51.444;6.484;2022-09-09T15:32:18;3.00;;;1.93;;
3843;SDS011;1937;51.444;6.484;2022-09-09T15:34:46;3.97;;;1.90;;
3843;SDS011;1937;51.444;6.484;2022-09-09T15:37:16;2.13;;;1.80;;
3843;SDS011;1937;51.444;6.484;2022-09-09T15:39:44;2.40;;;1.67;;
3843;SDS011;1937;51.444;6.484;2022-09-09T15:42:13;6.30;;;1.60;;
3843;SDS011;1937;51.444;6.484;2022-09-09T15:44:42;2.83;;;1.93;;
3843;SDS011;1937;51.444;6.484;2022-09-09T15:47:11;2.47;;;1.40;;
3843;SDS011;1937;51.444;6.484;2022-09-09T15:49:41;3.33;;;1.60;;
3843;SDS011;1937;51.444;6.484;2022-09-09T15:52:10;3.77;;;2.10;;
3843;SDS011;1937;51.444;6.484;2022-09-09T15:54:39;2.60;;;1.60;;
3843;SDS011;1937;51.444;6.484;2022-09-09T15:57:11;6.60;;;1.63;;
3843;SDS011;1937;51.444;6.484;2022-09-09T15:59:39;3.47;;;1.80;;
3843;SDS011;1937;51.444;6.484;2022-09-09T16:02:08;3.13;;;1.63;;